createdAt,value
2018-08-17T00:02:38.736Z,8.90
2018-08-17T00:05:07.660Z,11.83
2018-08-17T00:07:36.473Z,8.07
2018-08-17T00:10:05.505Z,5.50
2018-08-17T01:03:24.451Z,8.73
2018-08-17T01:05:53.329Z,6.00
2018-08-17T01:08:22.148Z,4.77
2018-08-17T01:10:52.062Z,8.10
2018-08-17T02:02:38.401Z,5.97
2018-08-17T02:05:07.603Z,5.07
2018-08-17T02:07:36.570Z,7.50
2018-08-17T03:02:37.800Z,11.57
2018-08-17T03:05:06.645Z,7.83
2018-08-17T03:07:35.576Z,9.03
2018-08-17T03:10:04.681Z,7.20
2018-08-17T04:02:39.605Z,6.63
2018-08-17T04:05:08.468Z,6.07
2018-08-17T04:07:37.397Z,4.10
2018-08-17T05:02:40.805Z,24.23
2018-08-17T05:05:09.998Z,17.53
2018-08-17T05:07:39.012Z,14.80
2018-08-17T06:02:37.221Z,14.27
2018-08-17T06:05:07.315Z,8.30
2018-08-17T06:07:36.178Z,7.60
2018-08-17T07:02:57.539Z,2.63
2018-08-17T07:05:26.374Z,2.30
2018-08-17T07:07:55.345Z,2.37
2018-08-17T07:10:24.582Z,3.50
2018-08-17T08:02:37.380Z,2.57
2018-08-17T08:05:07.242Z,2.00
2018-08-17T08:07:36.140Z,2.00
2018-08-17T08:10:05.230Z,3.03
2018-08-17T09:02:36.717Z,1.67
2018-08-17T09:05:05.745Z,1.60
2018-08-17T09:07:34.566Z,1.90
2018-08-17T09:10:03.622Z,1.93
2018-08-17T10:02:42.431Z,1.60
2018-08-17T10:05:16.528Z,2.20
2018-08-17T10:07:51.014Z,1.63
2018-08-17T11:02:36.991Z,1.60
2018-08-17T11:05:06.059Z,1.67
2018-08-17T11:07:38.431Z,2.03
2018-08-17T12:02:36.602Z,10.10
2018-08-17T12:05:05.914Z,3.77
2018-08-17T12:07:35.046Z,2.00
2018-08-17T12:10:04.965Z,2.83
2018-08-17T13:02:48.152Z,1.83
2018-08-17T13:05:18.728Z,1.73
2018-08-17T13:08:03.767Z,1.40
2018-08-17T14:02:52.896Z,1.70
2018-08-17T14:05:39.792Z,2.23
2018-08-17T14:08:08.739Z,1.47
2018-08-17T15:03:04.553Z,2.07
2018-08-17T15:05:33.410Z,2.30
2018-08-17T15:08:02.292Z,1.90
2018-08-17T15:10:31.314Z,3.37
2018-08-17T16:02:41.622Z,5.27
2018-08-17T16:05:10.530Z,2.20
2018-08-17T16:07:39.378Z,2.47
2018-08-17T17:02:42.257Z,2.20
2018-08-17T17:05:11.126Z,5.10
2018-08-17T17:07:39.944Z,2.00
2018-08-17T18:02:36.881Z,5.13
2018-08-17T18:05:05.797Z,4.17
2018-08-17T18:07:38.878Z,2.43
2018-08-17T19:02:36.656Z,3.53
2018-08-17T19:05:05.900Z,3.40
2018-08-17T19:07:35.362Z,5.00
2018-08-17T19:10:04.742Z,5.30
2018-08-17T20:02:44.602Z,7.20
2018-08-17T20:05:13.525Z,6.63
2018-08-17T20:07:42.461Z,5.60
2018-08-17T21:02:37.165Z,9.63
2018-08-17T21:05:06.146Z,12.53
2018-08-17T21:07:35.124Z,8.93
2018-08-17T21:10:04.387Z,6.80
2018-08-17T23:02:38.826Z,12.40
2018-08-17T23:05:09.534Z,16.33
2018-08-17T23:07:38.677Z,17.53
